sensor_id;sensor_type;location;lat;lon;timestamp;P1;durP1;ratioP1;P2;durP2;ratioP2
11443;SDS011;5778;47.856;12.154;2023-05-06T00:01:29;0.80;;;0.80;;
11443;SDS011;5778;47.856;12.154;2023-05-06T00:03:55;1.17;;;0.90;;
11443;SDS011;5778;47.856;12.154;2023-05-06T00:06:22;0.83;;;0.80;;
11443;SDS011;5778;47.856;12.154;2023-05-06T00:08:49;0.80;;;0.80;;
11443;SDS011;5778;47.856;12.154;2023-05-06T00:11:16;1.47;;;1.00;;
11443;SDS011;5778;47.856;12.154;2023-05-06T00:13:43;1.73;;;1.00;;
11443;SDS011;5778;47.856;12.154;2023-05-06T00:16:10;2.30;;;0.90;;
11443;SDS011;5778;47.856;12.154;2023-05-06T00:18:38;1.53;;;1.00;;
11443;SDS011;5778;47.856;12.154;2023-05-06T00:21:07;1.90;;;1.17;;
11443;SDS011;5778;47.856;12.154;2023-05-06T00:23:34;1.80;;;1.10;;
11443;SDS011;5778;47.856;12.154;2023-05-06T00:26:01;2.10;;;1.10;;
11443;SDS011;5778;47.856;12.154;2023-05-06T00:28:27;1.17;;;1.07;;
11443;SDS011;5778;47.856;12.154;2023-05-06T00:30:54;1.63;;;1.20;;
11443;SDS011;5778;47.856;12.154;2023-05-06T00:33:21;1.33;;;1.23;;
11443;SDS011;5778;47.856;12.154;2023-05-06T00:35:50;1.53;;;1.40;;
11443;SDS011;5778;47.856;12.154;2023-05-06T00:38:17;3.10;;;1.30;;
11443;SDS011;5778;47.856;12.154;2023-05-06T00:40:44;1.93;;;1.40;;
11443;SDS011;5778;47.856;12.154;2023-05-06T00:43:11;1.80;;;1.50;;
11443;SDS011;5778;47.856;12.154;2023-05-06T00:45:38;1.40;;;1.30;;
11443;SDS011;5778;47.856;12.154;2023-05-06T00:48:06;1.50;;;1.40;;
11443;SDS011;5778;47.856;12.154;2023-05-06T00:50:33;1.93;;;1.40;;
11443;SDS011;5778;47.856;12.154;2023-05-06T00:53:03;2.40;;;1.30;;
11443;SDS011;5778;47.856;12.154;2023-05-06T00:55:30;1.60;;;1.50;;
11443;SDS011;5778;47.856;12.154;2023-05-06T00:57:58;1.40;;;1.30;;
11443;SDS011;5778;47.856;12.154;2023-05-06T01:00:25;1.70;;;1.60;;
11443;SDS011;5778;47.856;12.154;2023-05-06T01:02:52;1.97;;;1.43;;
11443;SDS011;5778;47.856;12.154;2023-05-06T01:05:21;1.43;;;1.33;;
11443;SDS011;5778;47.856;12.154;2023-05-06T01:07:51;1.70;;;1.40;;
11443;SDS011;5778;47.856;12.154;2023-05-06T01:10:25;3.03;;;1.60;;
11443;SDS011;5778;47.856;12.154;2023-05-06T01:13:00;2.67;;;1.73;;
11443;SDS011;5778;47.856;12.154;2023-05-06T01:15:32;1.80;;;1.70;;
11443;SDS011;5778;47.856;12.154;2023-05-06T01:18:07;2.00;;;1.50;;
11443;SDS011;5778;47.856;12.154;2023-05-06T01:20:37;1.53;;;1.43;;
11443;SDS011;5778;47.856;12.154;2023-05-06T01:23:10;1.90;;;1.80;;
11443;SDS011;5778;47.856;12.154;2023-05-06T01:25:38;2.00;;;1.67;;
11443;SDS011;5778;47.856;12.154;2023-05-06T01:28:04;2.10;;;1.50;;
11443;SDS011;5778;47.856;12.154;2023-05-06T01:30:44;1.73;;;1.43;;
11443;SDS011;5778;47.856;12.154;2023-05-06T01:33:18;2.10;;;1.57;;
11443;SDS011;5778;47.856;12.154;2023-05-06T01:35:57;2.33;;;1.73;;
11443;SDS011;5778;47.856;12.154;2023-05-06T01:38:37;2.03;;;1.80;;
11443;SDS011;5778;47.856;12.154;2023-05-06T01:41:12;2.60;;;1.70;;
11443;SDS011;5778;47.856;12.154;2023-05-06T01:43:42;2.23;;;1.90;;
11443;SDS011;5778;47.856;12.154;2023-05-06T01:46:12;1.90;;;1.67;;
11443;SDS011;5778;47.856;12.154;2023-05-06T01:48:43;1.83;;;1.63;;
11443;SDS011;5778;47.856;12.154;2023-05-06T01:51:11;2.07;;;1.70;;
11443;SDS011;5778;47.856;12.154;2023-05-06T01:53:40;1.77;;;1.67;;
11443;SDS011;5778;47.856;12.154;2023-05-06T01:56:07;2.30;;;1.93;;
11443;SDS011;5778;47.856;12.154;2023-05-06T01:58:36;1.93;;;1.83;;
11443;SDS011;5778;47.856;12.154;2023-05-06T02:01:04;1.80;;;1.70;;
11443;SDS011;5778;47.856;12.154;2023-05-06T02:03:31;1.90;;;1.80;;
11443;SDS011;5778;47.856;12.154;2023-05-06T02:05:58;1.97;;;1.77;;
11443;SDS011;5778;47.856;12.154;2023-05-06T02:08:28;1.90;;;1.80;;
11443;SDS011;5778;47.856;12.154;2023-05-06T02:10:57;1.90;;;1.80;;
11443;SDS011;5778;47.856;12.154;2023-05-06T02:13:24;2.60;;;2.40;;
11443;SDS011;5778;47.856;12.154;2023-05-06T02:15:51;3.10;;;2.40;;
11443;SDS011;5778;47.856;12.154;2023-05-06T02:18:20;2.43;;;2.13;;
11443;SDS011;5778;47.856;12.154;2023-05-06T02:20:48;3.33;;;2.50;;
11443;SDS011;5778;47.856;12.154;2023-05-06T02:23:15;3.70;;;2.67;;
11443;SDS011;5778;47.856;12.154;2023-05-06T02:25:42;3.53;;;2.80;;
11443;SDS011;5778;47.856;12.154;2023-05-06T02:28:11;2.97;;;2.37;;
11443;SDS011;5778;47.856;12.154;2023-05-06T02:30:37;2.57;;;1.90;;
11443;SDS011;5778;47.856;12.154;2023-05-06T02:33:05;2.50;;;1.70;;
11443;SDS011;5778;47.856;12.154;2023-05-06T02:35:32;2.13;;;1.93;;
11443;SDS011;5778;47.856;12.154;2023-05-06T02:37:59;2.30;;;1.97;;
11443;SDS011;5778;47.856;12.154;2023-05-06T02:40:26;2.67;;;1.57;;
11443;SDS011;5778;47.856;12.154;2023-05-06T02:42:53;1.40;;;1.30;;
11443;SDS011;5778;47.856;12.154;2023-05-06T02:45:21;1.60;;;1.50;;
11443;SDS011;5778;47.856;12.154;2023-05-06T02:47:48;3.70;;;1.90;;
11443;SDS011;5778;47.856;12.154;2023-05-06T02:50:16;2.40;;;1.50;;
11443;SDS011;5778;47.856;12.154;2023-05-06T02:52:43;3.07;;;1.83;;
11443;SDS011;5778;47.856;12.154;2023-05-06T02:55:09;2.07;;;1.70;;
11443;SDS011;5778;47.856;12.154;2023-05-06T02:57:37;2.70;;;1.97;;
11443;SDS011;5778;47.856;12.154;2023-05-06T03:00:04;2.93;;;1.90;;
11443;SDS011;5778;47.856;12.154;2023-05-06T03:02:36;3.30;;;1.80;;
11443;SDS011;5778;47.856;12.154;2023-05-06T03:05:03;2.67;;;1.90;;
11443;SDS011;5778;47.856;12.154;2023-05-06T03:07:31;2.47;;;1.70;;
11443;SDS011;5778;47.856;12.154;2023-05-06T03:09:58;2.10;;;1.80;;
11443;SDS011;5778;47.856;12.154;2023-05-06T03:12:25;3.63;;;1.50;;
11443;SDS011;5778;47.856;12.154;2023-05-06T03:14:52;2.80;;;2.00;;
11443;SDS011;5778;47.856;12.154;2023-05-06T03:17:19;2.47;;;2.27;;
11443;SDS011;5778;47.856;12.154;2023-05-06T03:19:48;2.83;;;1.90;;
11443;SDS011;5778;47.856;12.154;2023-05-06T03:22:16;2.17;;;2.07;;
11443;SDS011;5778;47.856;12.154;2023-05-06T03:24:44;2.37;;;1.90;;
11443;SDS011;5778;47.856;12.154;2023-05-06T03:27:11;4.70;;;2.30;;
11443;SDS011;5778;47.856;12.154;2023-05-06T03:29:39;2.10;;;2.00;;
11443;SDS011;5778;47.856;12.154;2023-05-06T03:32:08;2.93;;;2.07;;
11443;SDS011;5778;47.856;12.154;2023-05-06T03:34:40;2.40;;;2.30;;
11443;SDS011;5778;47.856;12.154;2023-05-06T03:37:12;4.37;;;2.67;;
11443;SDS011;5778;47.856;12.154;2023-05-06T03:39:45;4.63;;;2.60;;
11443;SDS011;5778;47.856;12.154;2023-05-06T03:42:13;2.70;;;2.50;;
11443;SDS011;5778;47.856;12.154;2023-05-06T03:44:41;4.53;;;2.37;;
11443;SDS011;5778;47.856;12.154;2023-05-06T03:47:08;2.60;;;2.40;;
11443;SDS011;5778;47.856;12.154;2023-05-06T03:49:36;2.20;;;2.10;;
11443;SDS011;5778;47.856;12.154;2023-05-06T03:52:04;2.57;;;2.23;;
11443;SDS011;5778;47.856;12.154;2023-05-06T03:54:32;2.47;;;2.20;;
11443;SDS011;5778;47.856;12.154;2023-05-06T03:57:00;2.40;;;2.20;;
11443;SDS011;5778;47.856;12.154;2023-05-06T03:59:28;2.27;;;2.07;;
11443;SDS011;5778;47.856;12.154;2023-05-06T04:01:57;2.57;;;2.27;;
11443;SDS011;5778;47.856;12.154;2023-05-06T04:04:25;2.27;;;1.93;;
11443;SDS011;5778;47.856;12.154;2023-05-06T04:06:52;2.63;;;2.43;;
11443;SDS011;5778;47.856;12.154;2023-05-06T04:09:19;2.30;;;2.20;;
11443;SDS011;5778;47.856;12.154;2023-05-06T04:11:49;2.47;;;2.27;;
11443;SDS011;5778;47.856;12.154;2023-05-06T04:14:16;2.60;;;2.40;;
11443;SDS011;5778;47.856;12.154;2023-05-06T04:16:44;2.93;;;2.30;;
11443;SDS011;5778;47.856;12.154;2023-05-06T04:19:11;2.17;;;2.07;;
11443;SDS011;5778;47.856;12.154;2023-05-06T04:21:38;2.50;;;2.27;;
11443;SDS011;5778;47.856;12.154;2023-05-06T04:24:08;4.17;;;2.40;;
11443;SDS011;5778;47.856;12.154;2023-05-06T04:26:37;2.80;;;2.60;;
11443;SDS011;5778;47.856;12.154;2023-05-06T04:29:06;2.60;;;2.40;;
11443;SDS011;5778;47.856;12.154;2023-05-06T04:31:40;2.40;;;2.20;;
11443;SDS011;5778;47.856;12.154;2023-05-06T04:34:10;2.30;;;2.20;;
11443;SDS011;5778;47.856;12.154;2023-05-06T04:36:37;3.30;;;2.23;;
11443;SDS011;5778;47.856;12.154;2023-05-06T04:39:28;2.60;;;2.40;;
11443;SDS011;5778;47.856;12.154;2023-05-06T04:41:58;2.20;;;2.00;;
11443;SDS011;5778;47.856;12.154;2023-05-06T04:44:34;2.60;;;2.50;;
11443;SDS011;5778;47.856;12.154;2023-05-06T04:47:05;2.70;;;2.20;;
11443;SDS011;5778;47.856;12.154;2023-05-06T04:49:32;2.50;;;2.30;;
11443;SDS011;5778;47.856;12.154;2023-05-06T04:52:00;2.60;;;2.40;;
11443;SDS011;5778;47.856;12.154;2023-05-06T04:54:28;2.67;;;2.30;;
11443;SDS011;5778;47.856;12.154;2023-05-06T04:56:55;2.93;;;2.10;;
11443;SDS011;5778;47.856;12.154;2023-05-06T04:59:22;2.20;;;2.10;;
11443;SDS011;5778;47.856;12.154;2023-05-06T05:01:51;2.90;;;2.30;;
11443;SDS011;5778;47.856;12.154;2023-05-06T05:04:19;3.23;;;2.60;;
11443;SDS011;5778;47.856;12.154;2023-05-06T05:06:46;2.50;;;2.40;;
11443;SDS011;5778;47.856;12.154;2023-05-06T05:09:14;2.70;;;2.50;;
11443;SDS011;5778;47.856;12.154;2023-05-06T05:11:43;2.17;;;2.07;;
11443;SDS011;5778;47.856;12.154;2023-05-06T05:14:10;2.73;;;2.10;;
11443;SDS011;5778;47.856;12.154;2023-05-06T05:16:37;2.60;;;2.40;;
11443;SDS011;5778;47.856;12.154;2023-05-06T05:19:05;3.60;;;2.20;;
11443;SDS011;5778;47.856;12.154;2023-05-06T05:21:32;2.07;;;1.97;;
11443;SDS011;5778;47.856;12.154;2023-05-06T05:24:11;2.23;;;2.03;;
11443;SDS011;5778;47.856;12.154;2023-05-06T05:26:37;2.13;;;2.03;;
11443;SDS011;5778;47.856;12.154;2023-05-06T05:29:04;2.53;;;2.33;;
11443;SDS011;5778;47.856;12.154;2023-05-06T05:31:34;2.70;;;2.20;;
11443;SDS011;5778;47.856;12.154;2023-05-06T05:34:21;3.33;;;2.03;;
11443;SDS011;5778;47.856;12.154;2023-05-06T05:36:48;2.10;;;2.00;;
11443;SDS011;5778;47.856;12.154;2023-05-06T05:39:15;2.00;;;1.90;;
11443;SDS011;5778;47.856;12.154;2023-05-06T05:41:44;2.10;;;2.00;;
11443;SDS011;5778;47.856;12.154;2023-05-06T05:44:20;2.43;;;2.23;;
11443;SDS011;5778;47.856;12.154;2023-05-06T05:46:48;9.63;;;8.50;;
11443;SDS011;5778;47.856;12.154;2023-05-06T05:49:17;2.53;;;2.00;;
11443;SDS011;5778;47.856;12.154;2023-05-06T05:51:46;2.27;;;2.07;;
11443;SDS011;5778;47.856;12.154;2023-05-06T05:57:11;2.20;;;2.10;;
11443;SDS011;5778;47.856;12.154;2023-05-06T05:59:38;2.30;;;2.03;;
11443;SDS011;5778;47.856;12.154;2023-05-06T06:02:05;2.40;;;2.30;;
11443;SDS011;5778;47.856;12.154;2023-05-06T06:04:34;2.87;;;2.30;;
11443;SDS011;5778;47.856;12.154;2023-05-06T06:07:04;2.53;;;2.33;;
11443;SDS011;5778;47.856;12.154;2023-05-06T06:09:35;3.20;;;2.50;;
11443;SDS011;5778;47.856;12.154;2023-05-06T06:12:03;2.53;;;2.33;;
11443;SDS011;5778;47.856;12.154;2023-05-06T06:14:31;2.43;;;2.20;;
11443;SDS011;5778;47.856;12.154;2023-05-06T06:16:59;2.17;;;2.07;;
11443;SDS011;5778;47.856;12.154;2023-05-06T06:19:27;2.20;;;2.10;;
11443;SDS011;5778;47.856;12.154;2023-05-06T06:21:55;1.70;;;1.60;;
11443;SDS011;5778;47.856;12.154;2023-05-06T06:24:25;3.47;;;2.13;;
11443;SDS011;5778;47.856;12.154;2023-05-06T06:26:52;2.30;;;2.10;;
11443;SDS011;5778;47.856;12.154;2023-05-06T06:29:19;2.43;;;1.80;;
11443;SDS011;5778;47.856;12.154;2023-05-06T06:31:46;2.57;;;2.17;;
11443;SDS011;5778;47.856;12.154;2023-05-06T06:34:13;1.60;;;1.50;;
11443;SDS011;5778;47.856;12.154;2023-05-06T06:36:40;1.93;;;1.73;;
11443;SDS011;5778;47.856;12.154;2023-05-06T06:39:09;2.40;;;1.70;;
11443;SDS011;5778;47.856;12.154;2023-05-06T06:41:38;3.33;;;1.60;;
11443;SDS011;5778;47.856;12.154;2023-05-06T06:44:05;2.33;;;1.50;;
11443;SDS011;5778;47.856;12.154;2023-05-06T06:46:32;2.47;;;1.53;;
11443;SDS011;5778;47.856;12.154;2023-05-06T06:49:00;1.47;;;1.37;;
11443;SDS011;5778;47.856;12.154;2023-05-06T06:51:26;2.20;;;1.60;;
11443;SDS011;5778;47.856;12.154;2023-05-06T06:53:53;2.00;;;1.90;;
11443;SDS011;5778;47.856;12.154;2023-05-06T06:56:21;2.83;;;2.40;;
11443;SDS011;5778;47.856;12.154;2023-05-06T06:58:49;2.70;;;1.60;;
11443;SDS011;5778;47.856;12.154;2023-05-06T07:01:17;1.50;;;1.40;;
11443;SDS011;5778;47.856;12.154;2023-05-06T07:03:44;1.47;;;1.40;;
11443;SDS011;5778;47.856;12.154;2023-05-06T07:06:10;1.77;;;1.20;;
11443;SDS011;5778;47.856;12.154;2023-05-06T07:08:37;2.03;;;1.27;;
11443;SDS011;5778;47.856;12.154;2023-05-06T07:11:04;1.20;;;1.10;;
11443;SDS011;5778;47.856;12.154;2023-05-06T07:13:31;1.30;;;1.20;;
11443;SDS011;5778;47.856;12.154;2023-05-06T07:16:00;2.03;;;1.27;;
11443;SDS011;5778;47.856;12.154;2023-05-06T07:18:27;2.57;;;1.57;;
11443;SDS011;5778;47.856;12.154;2023-05-06T07:20:54;2.57;;;1.10;;
11443;SDS011;5778;47.856;12.154;2023-05-06T07:23:20;1.27;;;1.10;;
11443;SDS011;5778;47.856;12.154;2023-05-06T07:25:47;1.43;;;1.33;;
11443;SDS011;5778;47.856;12.154;2023-05-06T07:28:14;2.10;;;1.30;;
11443;SDS011;5778;47.856;12.154;2023-05-06T07:30:41;1.50;;;1.40;;
11443;SDS011;5778;47.856;12.154;2023-05-06T07:33:09;1.60;;;1.50;;
11443;SDS011;5778;47.856;12.154;2023-05-06T07:35:36;1.50;;;1.40;;
11443;SDS011;5778;47.856;12.154;2023-05-06T07:38:03;3.10;;;1.70;;
11443;SDS011;5778;47.856;12.154;2023-05-06T07:40:30;1.60;;;1.50;;
11443;SDS011;5778;47.856;12.154;2023-05-06T07:42:57;1.77;;;1.43;;
11443;SDS011;5778;47.856;12.154;2023-05-06T07:45:24;1.20;;;1.20;;
11443;SDS011;5778;47.856;12.154;2023-05-06T07:47:50;1.87;;;1.40;;
11443;SDS011;5778;47.856;12.154;2023-05-06T07:50:19;1.50;;;1.40;;
11443;SDS011;5778;47.856;12.154;2023-05-06T07:52:46;2.57;;;1.63;;
11443;SDS011;5778;47.856;12.154;2023-05-06T07:55:13;1.63;;;1.53;;
11443;SDS011;5778;47.856;12.154;2023-05-06T07:57:40;1.30;;;1.30;;
11443;SDS011;5778;47.856;12.154;2023-05-06T08:00:07;1.20;;;1.20;;
11443;SDS011;5778;47.856;12.154;2023-05-06T08:02:41;2.00;;;1.20;;
11443;SDS011;5778;47.856;12.154;2023-05-06T08:05:08;2.33;;;1.37;;
11443;SDS011;5778;47.856;12.154;2023-05-06T08:07:37;3.60;;;1.40;;
11443;SDS011;5778;47.856;12.154;2023-05-06T08:10:05;3.80;;;1.50;;
11443;SDS011;5778;47.856;12.154;2023-05-06T08:12:33;3.10;;;1.47;;
11443;SDS011;5778;47.856;12.154;2023-05-06T08:15:01;1.50;;;1.40;;
11443;SDS011;5778;47.856;12.154;2023-05-06T08:17:29;1.80;;;1.70;;
11443;SDS011;5778;47.856;12.154;2023-05-06T08:19:56;3.47;;;1.87;;
11443;SDS011;5778;47.856;12.154;2023-05-06T08:22:22;2.20;;;1.97;;
11443;SDS011;5778;47.856;12.154;2023-05-06T08:24:51;2.07;;;1.70;;
11443;SDS011;5778;47.856;12.154;2023-05-06T08:27:18;2.00;;;1.83;;
11443;SDS011;5778;47.856;12.154;2023-05-06T08:29:45;2.17;;;2.00;;
11443;SDS011;5778;47.856;12.154;2023-05-06T08:32:12;2.20;;;2.10;;
11443;SDS011;5778;47.856;12.154;2023-05-06T08:34:39;2.73;;;2.53;;
11443;SDS011;5778;47.856;12.154;2023-05-06T08:37:06;2.43;;;2.23;;
11443;SDS011;5778;47.856;12.154;2023-05-06T08:39:33;2.53;;;2.33;;
11443;SDS011;5778;47.856;12.154;2023-05-06T08:42:01;2.60;;;2.40;;
11443;SDS011;5778;47.856;12.154;2023-05-06T08:44:28;2.63;;;2.50;;
11443;SDS011;5778;47.856;12.154;2023-05-06T08:46:55;3.00;;;2.80;;
11443;SDS011;5778;47.856;12.154;2023-05-06T08:49:22;6.33;;;2.80;;
11443;SDS011;5778;47.856;12.154;2023-05-06T08:51:50;3.07;;;2.53;;
11443;SDS011;5778;47.856;12.154;2023-05-06T08:54:17;2.97;;;2.77;;
11443;SDS011;5778;47.856;12.154;2023-05-06T08:56:46;5.00;;;2.77;;
11443;SDS011;5778;47.856;12.154;2023-05-06T08:59:19;3.70;;;3.30;;
11443;SDS011;5778;47.856;12.154;2023-05-06T09:01:50;3.80;;;3.13;;
11443;SDS011;5778;47.856;12.154;2023-05-06T09:04:18;3.70;;;3.40;;
11443;SDS011;5778;47.856;12.154;2023-05-06T09:06:45;3.60;;;3.20;;
11443;SDS011;5778;47.856;12.154;2023-05-06T09:09:12;3.50;;;3.30;;
11443;SDS011;5778;47.856;12.154;2023-05-06T09:11:39;3.60;;;3.30;;
11443;SDS011;5778;47.856;12.154;2023-05-06T09:14:08;4.00;;;3.60;;
11443;SDS011;5778;47.856;12.154;2023-05-06T09:16:38;4.63;;;3.37;;
11443;SDS011;5778;47.856;12.154;2023-05-06T09:19:06;3.70;;;3.50;;
11443;SDS011;5778;47.856;12.154;2023-05-06T09:21:34;4.70;;;4.30;;
11443;SDS011;5778;47.856;12.154;2023-05-06T09:24:03;7.50;;;5.97;;
11443;SDS011;5778;47.856;12.154;2023-05-06T09:26:32;4.63;;;4.10;;
11443;SDS011;5778;47.856;12.154;2023-05-06T09:29:00;5.40;;;3.63;;
11443;SDS011;5778;47.856;12.154;2023-05-06T09:31:28;4.87;;;4.10;;
11443;SDS011;5778;47.856;12.154;2023-05-06T09:33:57;4.17;;;3.77;;
11443;SDS011;5778;47.856;12.154;2023-05-06T09:36:26;3.80;;;3.50;;
11443;SDS011;5778;47.856;12.154;2023-05-06T09:38:54;4.07;;;3.27;;
11443;SDS011;5778;47.856;12.154;2023-05-06T09:41:21;4.40;;;4.00;;
11443;SDS011;5778;47.856;12.154;2023-05-06T09:43:50;4.50;;;4.10;;
11443;SDS011;5778;47.856;12.154;2023-05-06T09:46:18;4.63;;;3.97;;
11443;SDS011;5778;47.856;12.154;2023-05-06T09:48:47;4.63;;;4.00;;
11443;SDS011;5778;47.856;12.154;2023-05-06T09:51:17;5.13;;;4.03;;
11443;SDS011;5778;47.856;12.154;2023-05-06T09:53:44;4.53;;;4.13;;
11443;SDS011;5778;47.856;12.154;2023-05-06T09:56:12;3.80;;;3.50;;
11443;SDS011;5778;47.856;12.154;2023-05-06T09:58:40;4.10;;;3.67;;
11443;SDS011;5778;47.856;12.154;2023-05-06T10:01:08;4.20;;;3.80;;
11443;SDS011;5778;47.856;12.154;2023-05-06T10:03:36;4.53;;;3.70;;
11443;SDS011;5778;47.856;12.154;2023-05-06T10:06:05;3.90;;;3.20;;
11443;SDS011;5778;47.856;12.154;2023-05-06T10:08:34;3.63;;;3.37;;
11443;SDS011;5778;47.856;12.154;2023-05-06T10:11:02;3.30;;;3.00;;
11443;SDS011;5778;47.856;12.154;2023-05-06T10:13:30;3.83;;;2.90;;
11443;SDS011;5778;47.856;12.154;2023-05-06T10:15:58;2.67;;;2.47;;
11443;SDS011;5778;47.856;12.154;2023-05-06T10:18:27;3.60;;;3.30;;
11443;SDS011;5778;47.856;12.154;2023-05-06T10:20:55;2.90;;;2.70;;
11443;SDS011;5778;47.856;12.154;2023-05-06T10:23:28;2.80;;;2.60;;
11443;SDS011;5778;47.856;12.154;2023-05-06T10:26:00;3.20;;;2.90;;
11443;SDS011;5778;47.856;12.154;2023-05-06T10:28:33;3.47;;;2.93;;
11443;SDS011;5778;47.856;12.154;2023-05-06T10:31:06;2.37;;;2.27;;
11443;SDS011;5778;47.856;12.154;2023-05-06T10:33:37;2.60;;;2.40;;
11443;SDS011;5778;47.856;12.154;2023-05-06T10:36:13;2.50;;;2.23;;
11443;SDS011;5778;47.856;12.154;2023-05-06T10:38:44;2.60;;;2.40;;
11443;SDS011;5778;47.856;12.154;2023-05-06T10:41:15;2.67;;;2.47;;
11443;SDS011;5778;47.856;12.154;2023-05-06T10:43:44;2.87;;;2.57;;
11443;SDS011;5778;47.856;12.154;2023-05-06T10:46:12;2.50;;;2.30;;
11443;SDS011;5778;47.856;12.154;2023-05-06T10:51:44;4.47;;;3.07;;
11443;SDS011;5778;47.856;12.154;2023-05-06T10:54:20;4.00;;;2.90;;
11443;SDS011;5778;47.856;12.154;2023-05-06T10:59:37;4.03;;;3.13;;
11443;SDS011;5778;47.856;12.154;2023-05-06T11:02:11;2.90;;;2.67;;
11443;SDS011;5778;47.856;12.154;2023-05-06T11:04:38;2.70;;;2.50;;
11443;SDS011;5778;47.856;12.154;2023-05-06T11:07:06;2.63;;;2.30;;
11443;SDS011;5778;47.856;12.154;2023-05-06T11:09:52;2.40;;;2.20;;
11443;SDS011;5778;47.856;12.154;2023-05-06T11:12:22;4.43;;;2.40;;
11443;SDS011;5778;47.856;12.154;2023-05-06T11:15:19;2.33;;;2.00;;
11443;SDS011;5778;47.856;12.154;2023-05-06T11:17:50;2.50;;;2.30;;
11443;SDS011;5778;47.856;12.154;2023-05-06T11:20:19;4.17;;;1.90;;
11443;SDS011;5778;47.856;12.154;2023-05-06T11:22:47;2.27;;;2.10;;
11443;SDS011;5778;47.856;12.154;2023-05-06T11:25:28;2.07;;;1.90;;
11443;SDS011;5778;47.856;12.154;2023-05-06T11:28:07;1.90;;;1.80;;
11443;SDS011;5778;47.856;12.154;2023-05-06T11:30:36;1.80;;;1.70;;
11443;SDS011;5778;47.856;12.154;2023-05-06T11:33:05;3.83;;;2.10;;
11443;SDS011;5778;47.856;12.154;2023-05-06T11:35:34;1.90;;;1.80;;
11443;SDS011;5778;47.856;12.154;2023-05-06T11:38:01;2.33;;;2.07;;
11443;SDS011;5778;47.856;12.154;2023-05-06T11:40:28;2.00;;;1.80;;
11443;SDS011;5778;47.856;12.154;2023-05-06T11:43:09;2.10;;;2.00;;
11443;SDS011;5778;47.856;12.154;2023-05-06T11:45:40;3.00;;;2.00;;
11443;SDS011;5778;47.856;12.154;2023-05-06T11:48:12;1.93;;;1.80;;
11443;SDS011;5778;47.856;12.154;2023-05-06T11:50:42;2.10;;;2.00;;
11443;SDS011;5778;47.856;12.154;2023-05-06T11:53:16;2.53;;;1.80;;
11443;SDS011;5778;47.856;12.154;2023-05-06T11:55:44;2.57;;;2.10;;
11443;SDS011;5778;47.856;12.154;2023-05-06T11:58:14;2.00;;;1.70;;
11443;SDS011;5778;47.856;12.154;2023-05-06T12:00:45;2.40;;;2.20;;
11443;SDS011;5778;47.856;12.154;2023-05-06T12:03:14;2.47;;;2.00;;
11443;SDS011;5778;47.856;12.154;2023-05-06T12:05:41;2.13;;;1.90;;
11443;SDS011;5778;47.856;12.154;2023-05-06T12:08:09;2.40;;;1.90;;
11443;SDS011;5778;47.856;12.154;2023-05-06T12:10:37;2.47;;;2.00;;
11443;SDS011;5778;47.856;12.154;2023-05-06T12:13:04;2.17;;;1.97;;
11443;SDS011;5778;47.856;12.154;2023-05-06T12:15:33;2.00;;;1.90;;
11443;SDS011;5778;47.856;12.154;2023-05-06T12:18:01;2.03;;;1.93;;
11443;SDS011;5778;47.856;12.154;2023-05-06T12:20:29;2.20;;;2.10;;
11443;SDS011;5778;47.856;12.154;2023-05-06T12:23:05;2.27;;;2.17;;
11443;SDS011;5778;47.856;12.154;2023-05-06T12:25:32;2.00;;;1.80;;
11443;SDS011;5778;47.856;12.154;2023-05-06T12:27:59;2.30;;;2.10;;
11443;SDS011;5778;47.856;12.154;2023-05-06T12:30:30;1.73;;;1.63;;
11443;SDS011;5778;47.856;12.154;2023-05-06T12:33:00;1.70;;;1.60;;
11443;SDS011;5778;47.856;12.154;2023-05-06T12:35:27;1.90;;;1.80;;
11443;SDS011;5778;47.856;12.154;2023-05-06T12:37:56;2.23;;;1.53;;
11443;SDS011;5778;47.856;12.154;2023-05-06T12:40:35;3.07;;;1.90;;
11443;SDS011;5778;47.856;12.154;2023-05-06T12:43:02;2.17;;;1.80;;
11443;SDS011;5778;47.856;12.154;2023-05-06T12:45:29;1.70;;;1.60;;
11443;SDS011;5778;47.856;12.154;2023-05-06T12:47:56;3.03;;;2.43;;
11443;SDS011;5778;47.856;12.154;2023-05-06T12:50:32;2.37;;;2.17;;
11443;SDS011;5778;47.856;12.154;2023-05-06T12:53:00;2.17;;;1.97;;
11443;SDS011;5778;47.856;12.154;2023-05-06T12:55:28;1.83;;;1.60;;
11443;SDS011;5778;47.856;12.154;2023-05-06T12:57:55;1.87;;;1.50;;
11443;SDS011;5778;47.856;12.154;2023-05-06T13:00:22;2.17;;;1.97;;
11443;SDS011;5778;47.856;12.154;2023-05-06T13:02:49;2.37;;;1.57;;
11443;SDS011;5778;47.856;12.154;2023-05-06T13:05:16;2.50;;;1.80;;
11443;SDS011;5778;47.856;12.154;2023-05-06T13:07:45;1.97;;;1.87;;
11443;SDS011;5778;47.856;12.154;2023-05-06T13:10:12;2.17;;;1.60;;
11443;SDS011;5778;47.856;12.154;2023-05-06T13:12:39;2.17;;;1.73;;
11443;SDS011;5778;47.856;12.154;2023-05-06T13:15:06;1.67;;;1.57;;
11443;SDS011;5778;47.856;12.154;2023-05-06T13:17:34;1.70;;;1.60;;
11443;SDS011;5778;47.856;12.154;2023-05-06T13:20:01;1.80;;;1.70;;
11443;SDS011;5778;47.856;12.154;2023-05-06T13:22:29;2.20;;;1.73;;
11443;SDS011;5778;47.856;12.154;2023-05-06T13:24:57;1.77;;;1.67;;
11443;SDS011;5778;47.856;12.154;2023-05-06T13:27:24;2.63;;;2.23;;
11443;SDS011;5778;47.856;12.154;2023-05-06T13:29:51;3.37;;;2.43;;
11443;SDS011;5778;47.856;12.154;2023-05-06T13:32:18;5.27;;;2.80;;
11443;SDS011;5778;47.856;12.154;2023-05-06T13:34:45;2.97;;;2.23;;
11443;SDS011;5778;47.856;12.154;2023-05-06T13:37:12;3.23;;;2.50;;
11443;SDS011;5778;47.856;12.154;2023-05-06T13:39:39;2.93;;;2.63;;
11443;SDS011;5778;47.856;12.154;2023-05-06T13:42:07;3.23;;;3.03;;
11443;SDS011;5778;47.856;12.154;2023-05-06T13:44:34;2.70;;;2.50;;
11443;SDS011;5778;47.856;12.154;2023-05-06T13:47:01;3.40;;;2.70;;
11443;SDS011;5778;47.856;12.154;2023-05-06T13:49:28;3.67;;;3.03;;
11443;SDS011;5778;47.856;12.154;2023-05-06T13:51:55;6.13;;;3.30;;
11443;SDS011;5778;47.856;12.154;2023-05-06T13:54:22;2.70;;;2.50;;
11443;SDS011;5778;47.856;12.154;2023-05-06T13:56:49;2.70;;;2.50;;
11443;SDS011;5778;47.856;12.154;2023-05-06T13:59:18;2.67;;;2.20;;
11443;SDS011;5778;47.856;12.154;2023-05-06T14:01:44;2.80;;;2.30;;
11443;SDS011;5778;47.856;12.154;2023-05-06T14:04:14;3.00;;;2.10;;
11443;SDS011;5778;47.856;12.154;2023-05-06T14:06:41;2.53;;;2.30;;
11443;SDS011;5778;47.856;12.154;2023-05-06T14:09:09;2.47;;;2.27;;
11443;SDS011;5778;47.856;12.154;2023-05-06T14:11:37;2.50;;;2.20;;
11443;SDS011;5778;47.856;12.154;2023-05-06T14:14:04;2.13;;;2.03;;
11443;SDS011;5778;47.856;12.154;2023-05-06T14:16:32;2.37;;;2.27;;
11443;SDS011;5778;47.856;12.154;2023-05-06T14:18:59;2.60;;;2.13;;
11443;SDS011;5778;47.856;12.154;2023-05-06T14:21:26;2.20;;;2.10;;
11443;SDS011;5778;47.856;12.154;2023-05-06T14:23:53;1.80;;;1.70;;
11443;SDS011;5778;47.856;12.154;2023-05-06T14:26:19;2.30;;;1.90;;
11443;SDS011;5778;47.856;12.154;2023-05-06T14:28:46;2.00;;;1.90;;
11443;SDS011;5778;47.856;12.154;2023-05-06T14:31:13;2.50;;;1.97;;
11443;SDS011;5778;47.856;12.154;2023-05-06T14:33:41;2.60;;;1.80;;
11443;SDS011;5778;47.856;12.154;2023-05-06T14:36:08;2.33;;;1.90;;
11443;SDS011;5778;47.856;12.154;2023-05-06T14:38:35;2.60;;;1.63;;
11443;SDS011;5778;47.856;12.154;2023-05-06T14:41:02;3.23;;;2.10;;
11443;SDS011;5778;47.856;12.154;2023-05-06T14:43:30;2.30;;;1.70;;
11443;SDS011;5778;47.856;12.154;2023-05-06T14:45:57;2.20;;;1.70;;
11443;SDS011;5778;47.856;12.154;2023-05-06T14:48:24;1.67;;;1.57;;
11443;SDS011;5778;47.856;12.154;2023-05-06T14:50:52;1.63;;;1.53;;
11443;SDS011;5778;47.856;12.154;2023-05-06T14:53:19;3.73;;;2.00;;
11443;SDS011;5778;47.856;12.154;2023-05-06T14:55:46;2.00;;;1.77;;
11443;SDS011;5778;47.856;12.154;2023-05-06T14:58:13;4.80;;;1.87;;
11443;SDS011;5778;47.856;12.154;2023-05-06T15:00:40;2.17;;;1.70;;
11443;SDS011;5778;47.856;12.154;2023-05-06T15:03:06;1.87;;;1.77;;
11443;SDS011;5778;47.856;12.154;2023-05-06T15:05:33;1.83;;;1.73;;